sensor_id;sensor_type;location;lat;lon;timestamp;temperature;humidity
44729;DHT22;30457;53.590;9.922;2023-09-07T00:01:46;24.90;47.90
44729;DHT22;30457;53.590;9.922;2023-09-07T00:06:12;24.80;48.10
44729;DHT22;30457;53.590;9.922;2023-09-07T00:10:37;24.70;48.30
44729;DHT22;30457;53.590;9.922;2023-09-07T00:15:03;24.70;48.50
44729;DHT22;30457;53.590;9.922;2023-09-07T00:19:31;24.60;48.90
44729;DHT22;30457;53.590;9.922;2023-09-07T00:23:59;24.50;49.00
44729;DHT22;30457;53.590;9.922;2023-09-07T00:28:24;24.50;49.00
44729;DHT22;30457;53.590;9.922;2023-09-07T00:32:50;24.50;49.10
44729;DHT22;30457;53.590;9.922;2023-09-07T00:37:15;24.40;49.10
44729;DHT22;30457;53.590;9.922;2023-09-07T00:41:41;24.30;49.10
44729;DHT22;30457;53.590;9.922;2023-09-07T00:46:07;24.30;49.20
44729;DHT22;30457;53.590;9.922;2023-09-07T00:50:33;24.30;49.20
44729;DHT22;30457;53.590;9.922;2023-09-07T00:55:01;24.20;49.20
44729;DHT22;30457;53.590;9.922;2023-09-07T00:59:27;24.10;49.20
44729;DHT22;30457;53.590;9.922;2023-09-07T01:03:53;24.10;49.30
44729;DHT22;30457;53.590;9.922;2023-09-07T01:08:25;24.00;49.50
44729;DHT22;30457;53.590;9.922;2023-09-07T01:12:51;24.00;49.80
44729;DHT22;30457;53.590;9.922;2023-09-07T01:17:17;23.90;49.40
44729;DHT22;30457;53.590;9.922;2023-09-07T01:21:43;23.90;49.50
44729;DHT22;30457;53.590;9.922;2023-09-07T01:26:09;23.80;49.60
44729;DHT22;30457;53.590;9.922;2023-09-07T01:30:36;23.80;50.10
44729;DHT22;30457;53.590;9.922;2023-09-07T01:35:04;23.80;50.00
44729;DHT22;30457;53.590;9.922;2023-09-07T01:39:31;23.70;50.30
44729;DHT22;30457;53.590;9.922;2023-09-07T01:43:57;23.60;50.00
44729;DHT22;30457;53.590;9.922;2023-09-07T01:48:23;23.60;50.30
44729;DHT22;30457;53.590;9.922;2023-09-07T01:52:48;23.50;50.30
44729;DHT22;30457;53.590;9.922;2023-09-07T01:57:14;23.50;50.40
44729;DHT22;30457;53.590;9.922;2023-09-07T02:01:40;23.50;50.60
44729;DHT22;30457;53.590;9.922;2023-09-07T02:06:05;23.40;51.10
44729;DHT22;30457;53.590;9.922;2023-09-07T02:10:31;23.40;51.20
44729;DHT22;30457;53.590;9.922;2023-09-07T02:14:58;23.30;51.10
44729;DHT22;30457;53.590;9.922;2023-09-07T02:19:25;23.30;51.10
44729;DHT22;30457;53.590;9.922;2023-09-07T02:23:51;23.30;51.30
44729;DHT22;30457;53.590;9.922;2023-09-07T02:28:16;23.30;51.10
44729;DHT22;30457;53.590;9.922;2023-09-07T02:32:43;23.20;50.90
44729;DHT22;30457;53.590;9.922;2023-09-07T02:37:08;23.20;51.20
44729;DHT22;30457;53.590;9.922;2023-09-07T02:41:34;23.20;51.30
44729;DHT22;30457;53.590;9.922;2023-09-07T02:46:00;23.10;51.30
44729;DHT22;30457;53.590;9.922;2023-09-07T02:50:25;23.10;51.20
44729;DHT22;30457;53.590;9.922;2023-09-07T02:54:51;23.00;51.40
44729;DHT22;30457;53.590;9.922;2023-09-07T02:59:17;23.00;51.40
44729;DHT22;30457;53.590;9.922;2023-09-07T03:03:42;23.00;51.50
44729;DHT22;30457;53.590;9.922;2023-09-07T03:08:09;22.90;51.40
44729;DHT22;30457;53.590;9.922;2023-09-07T03:12:35;22.90;51.50
44729;DHT22;30457;53.590;9.922;2023-09-07T03:17:01;22.80;51.70
44729;DHT22;30457;53.590;9.922;2023-09-07T03:21:29;22.80;51.70
44729;DHT22;30457;53.590;9.922;2023-09-07T03:25:57;22.80;52.10
44729;DHT22;30457;53.590;9.922;2023-09-07T03:30:23;22.70;52.10
44729;DHT22;30457;53.590;9.922;2023-09-07T03:34:49;22.70;52.00
44729;DHT22;30457;53.590;9.922;2023-09-07T03:39:14;22.60;51.80
44729;DHT22;30457;53.590;9.922;2023-09-07T03:43:40;22.60;51.80
44729;DHT22;30457;53.590;9.922;2023-09-07T03:48:06;22.50;51.70
44729;DHT22;30457;53.590;9.922;2023-09-07T03:52:33;22.50;51.60
44729;DHT22;30457;53.590;9.922;2023-09-07T03:57:00;22.50;51.60
44729;DHT22;30457;53.590;9.922;2023-09-07T04:01:26;22.40;51.60
44729;DHT22;30457;53.590;9.922;2023-09-07T04:05:52;22.40;51.70
44729;DHT22;30457;53.590;9.922;2023-09-07T04:10:18;22.30;51.80
44729;DHT22;30457;53.590;9.922;2023-09-07T04:14:43;22.30;52.00
44729;DHT22;30457;53.590;9.922;2023-09-07T04:19:10;22.30;52.00
44729;DHT22;30457;53.590;9.922;2023-09-07T04:23:35;22.20;52.00
44729;DHT22;30457;53.590;9.922;2023-09-07T04:28:01;22.20;51.80
44729;DHT22;30457;53.590;9.922;2023-09-07T04:32:27;22.10;52.20
44729;DHT22;30457;53.590;9.922;2023-09-07T04:36:53;22.10;52.10
44729;DHT22;30457;53.590;9.922;2023-09-07T04:41:18;22.00;52.10
44729;DHT22;30457;53.590;9.922;2023-09-07T04:45:47;22.00;52.50
44729;DHT22;30457;53.590;9.922;2023-09-07T04:50:13;22.00;53.00
44729;DHT22;30457;53.590;9.922;2023-09-07T04:54:39;21.90;52.70
44729;DHT22;30457;53.590;9.922;2023-09-07T04:59:05;21.90;52.70
44729;DHT22;30457;53.590;9.922;2023-09-07T05:03:31;21.90;52.70
44729;DHT22;30457;53.590;9.922;2023-09-07T05:07:57;21.90;53.00
44729;DHT22;30457;53.590;9.922;2023-09-07T05:12:22;21.90;53.10
44729;DHT22;30457;53.590;9.922;2023-09-07T05:16:48;21.90;53.00
44729;DHT22;30457;53.590;9.922;2023-09-07T05:21:14;21.90;53.20
44729;DHT22;30457;53.590;9.922;2023-09-07T05:25:51;21.90;53.70
44729;DHT22;30457;53.590;9.922;2023-09-07T05:30:18;21.90;54.20
44729;DHT22;30457;53.590;9.922;2023-09-07T05:34:43;22.00;54.30
44729;DHT22;30457;53.590;9.922;2023-09-07T05:39:09;22.00;54.60
44729;DHT22;30457;53.590;9.922;2023-09-07T05:43:35;22.00;54.70
44729;DHT22;30457;53.590;9.922;2023-09-07T05:48:00;22.10;54.80
44729;DHT22;30457;53.590;9.922;2023-09-07T05:52:26;22.20;55.00
44729;DHT22;30457;53.590;9.922;2023-09-07T05:56:52;22.30;55.00
44729;DHT22;30457;53.590;9.922;2023-09-07T06:01:17;22.30;55.00
44729;DHT22;30457;53.590;9.922;2023-09-07T06:05:43;22.40;55.10
44729;DHT22;30457;53.590;9.922;2023-09-07T06:10:10;22.50;55.10
44729;DHT22;30457;53.590;9.922;2023-09-07T06:14:36;22.60;55.10
44729;DHT22;30457;53.590;9.922;2023-09-07T06:19:01;22.70;55.70
44729;DHT22;30457;53.590;9.922;2023-09-07T06:23:27;22.90;55.00
44729;DHT22;30457;53.590;9.922;2023-09-07T06:27:52;23.00;55.00
44729;DHT22;30457;53.590;9.922;2023-09-07T06:32:18;23.20;54.90
44729;DHT22;30457;53.590;9.922;2023-09-07T06:36:44;23.30;54.80
44729;DHT22;30457;53.590;9.922;2023-09-07T06:41:10;23.40;54.70
44729;DHT22;30457;53.590;9.922;2023-09-07T06:45:36;23.50;54.60
44729;DHT22;30457;53.590;9.922;2023-09-07T06:50:03;23.70;54.60
44729;DHT22;30457;53.590;9.922;2023-09-07T06:54:29;23.90;54.40
44729;DHT22;30457;53.590;9.922;2023-09-07T06:58:55;24.00;54.10
44729;DHT22;30457;53.590;9.922;2023-09-07T07:03:21;24.20;54.00
44729;DHT22;30457;53.590;9.922;2023-09-07T07:07:47;24.40;53.50
44729;DHT22;30457;53.590;9.922;2023-09-07T07:12:13;24.50;53.30
44729;DHT22;30457;53.590;9.922;2023-09-07T07:16:39;24.70;53.40
44729;DHT22;30457;53.590;9.922;2023-09-07T07:21:05;24.90;53.10
44729;DHT22;30457;53.590;9.922;2023-09-07T07:25:32;25.00;52.70
44729;DHT22;30457;53.590;9.922;2023-09-07T07:29:59;25.20;52.80
44729;DHT22;30457;53.590;9.922;2023-09-07T07:34:25;25.40;52.30
44729;DHT22;30457;53.590;9.922;2023-09-07T07:38:51;25.60;52.40
44729;DHT22;30457;53.590;9.922;2023-09-07T07:43:18;25.80;52.20
44729;DHT22;30457;53.590;9.922;2023-09-07T07:47:44;26.00;51.70
44729;DHT22;30457;53.590;9.922;2023-09-07T07:52:10;26.20;51.40
44729;DHT22;30457;53.590;9.922;2023-09-07T07:56:36;26.40;51.20
44729;DHT22;30457;53.590;9.922;2023-09-07T08:01:02;26.50;50.90
44729;DHT22;30457;53.590;9.922;2023-09-07T08:05:31;26.80;50.40
44729;DHT22;30457;53.590;9.922;2023-09-07T08:09:57;27.00;50.00
44729;DHT22;30457;53.590;9.922;2023-09-07T08:14:25;27.20;49.90
44729;DHT22;30457;53.590;9.922;2023-09-07T08:18:50;27.40;49.70
44729;DHT22;30457;53.590;9.922;2023-09-07T08:23:17;27.60;49.30
44729;DHT22;30457;53.590;9.922;2023-09-07T08:27:42;27.80;48.50
44729;DHT22;30457;53.590;9.922;2023-09-07T08:32:11;28.00;48.10
44729;DHT22;30457;53.590;9.922;2023-09-07T08:36:37;28.20;47.80
44729;DHT22;30457;53.590;9.922;2023-09-07T08:41:03;28.40;47.70
44729;DHT22;30457;53.590;9.922;2023-09-07T08:45:31;28.60;47.60
44729;DHT22;30457;53.590;9.922;2023-09-07T08:50:02;28.80;46.70
44729;DHT22;30457;53.590;9.922;2023-09-07T08:54:28;29.10;46.30
44729;DHT22;30457;53.590;9.922;2023-09-07T08:58:54;29.30;46.00
44729;DHT22;30457;53.590;9.922;2023-09-07T09:03:20;29.40;46.00
44729;DHT22;30457;53.590;9.922;2023-09-07T09:07:46;29.70;46.00
44729;DHT22;30457;53.590;9.922;2023-09-07T09:12:12;29.80;45.30
44729;DHT22;30457;53.590;9.922;2023-09-07T09:16:38;30.10;44.70
44729;DHT22;30457;53.590;9.922;2023-09-07T09:21:03;30.30;43.90
44729;DHT22;30457;53.590;9.922;2023-09-07T09:25:31;30.50;43.30
44729;DHT22;30457;53.590;9.922;2023-09-07T09:29:57;30.60;43.10
44729;DHT22;30457;53.590;9.922;2023-09-07T09:34:24;30.80;43.20
44729;DHT22;30457;53.590;9.922;2023-09-07T09:38:50;31.00;42.90
44729;DHT22;30457;53.590;9.922;2023-09-07T09:43:20;31.20;42.10
44729;DHT22;30457;53.590;9.922;2023-09-07T09:47:47;31.40;41.10
44729;DHT22;30457;53.590;9.922;2023-09-07T09:52:15;31.60;41.30
44729;DHT22;30457;53.590;9.922;2023-09-07T09:56:42;31.70;40.40
44729;DHT22;30457;53.590;9.922;2023-09-07T10:01:07;31.80;40.70
44729;DHT22;30457;53.590;9.922;2023-09-07T10:05:35;32.00;40.60
44729;DHT22;30457;53.590;9.922;2023-09-07T10:10:00;32.10;40.30
44729;DHT22;30457;53.590;9.922;2023-09-07T10:14:26;32.30;40.00
44729;DHT22;30457;53.590;9.922;2023-09-07T10:19:16;32.40;39.40
44729;DHT22;30457;53.590;9.922;2023-09-07T10:23:44;32.50;37.30
44729;DHT22;30457;53.590;9.922;2023-09-07T10:28:23;32.50;37.50
44729;DHT22;30457;53.590;9.922;2023-09-07T10:32:49;32.50;35.60
44729;DHT22;30457;53.590;9.922;2023-09-07T10:37:15;32.40;36.80
44729;DHT22;30457;53.590;9.922;2023-09-07T10:41:45;32.40;36.30
44729;DHT22;30457;53.590;9.922;2023-09-07T10:46:11;32.30;35.10
44729;DHT22;30457;53.590;9.922;2023-09-07T10:50:44;32.20;35.70
44729;DHT22;30457;53.590;9.922;2023-09-07T10:55:11;32.10;35.60
44729;DHT22;30457;53.590;9.922;2023-09-07T10:59:36;32.10;36.30
44729;DHT22;30457;53.590;9.922;2023-09-07T11:04:02;32.00;36.10
44729;DHT22;30457;53.590;9.922;2023-09-07T11:08:29;32.00;36.50
44729;DHT22;30457;53.590;9.922;2023-09-07T11:12:55;32.10;36.60
44729;DHT22;30457;53.590;9.922;2023-09-07T11:17:26;32.10;35.50
44729;DHT22;30457;53.590;9.922;2023-09-07T11:21:55;32.10;35.10
44729;DHT22;30457;53.590;9.922;2023-09-07T11:26:21;32.20;35.20
44729;DHT22;30457;53.590;9.922;2023-09-07T11:30:54;32.20;35.00
44729;DHT22;30457;53.590;9.922;2023-09-07T11:35:20;32.20;35.60
44729;DHT22;30457;53.590;9.922;2023-09-07T11:39:45;32.20;35.40
44729;DHT22;30457;53.590;9.922;2023-09-07T11:44:11;32.20;34.50
44729;DHT22;30457;53.590;9.922;2023-09-07T11:48:37;32.20;35.00
44729;DHT22;30457;53.590;9.922;2023-09-07T11:53:03;32.30;34.60
44729;DHT22;30457;53.590;9.922;2023-09-07T11:57:30;32.40;34.60
44729;DHT22;30457;53.590;9.922;2023-09-07T12:01:55;32.40;34.50
44729;DHT22;30457;53.590;9.922;2023-09-07T12:06:21;32.40;34.60
44729;DHT22;30457;53.590;9.922;2023-09-07T12:10:48;32.50;34.60
44729;DHT22;30457;53.590;9.922;2023-09-07T12:15:14;32.60;34.40
44729;DHT22;30457;53.590;9.922;2023-09-07T12:19:39;32.70;34.30
44729;DHT22;30457;53.590;9.922;2023-09-07T12:24:07;32.80;33.80
44729;DHT22;30457;53.590;9.922;2023-09-07T12:28:32;32.90;33.70
44729;DHT22;30457;53.590;9.922;2023-09-07T12:32:58;33.00;33.40
44729;DHT22;30457;53.590;9.922;2023-09-07T12:37:24;33.00;33.30
44729;DHT22;30457;53.590;9.922;2023-09-07T12:41:50;33.10;33.60
44729;DHT22;30457;53.590;9.922;2023-09-07T12:46:15;33.10;33.60
44729;DHT22;30457;53.590;9.922;2023-09-07T12:50:41;33.30;33.80
44729;DHT22;30457;53.590;9.922;2023-09-07T12:55:08;33.40;33.40
44729;DHT22;30457;53.590;9.922;2023-09-07T12:59:34;33.60;33.20
44729;DHT22;30457;53.590;9.922;2023-09-07T13:03:59;33.70;32.60
44729;DHT22;30457;53.590;9.922;2023-09-07T13:08:25;34.00;32.60
44729;DHT22;30457;53.590;9.922;2023-09-07T13:12:51;34.20;31.30
44729;DHT22;30457;53.590;9.922;2023-09-07T13:17:16;34.30;31.30
44729;DHT22;30457;53.590;9.922;2023-09-07T13:21:42;34.40;31.20
44729;DHT22;30457;53.590;9.922;2023-09-07T13:26:07;34.60;30.40
44729;DHT22;30457;53.590;9.922;2023-09-07T13:30:33;34.60;30.00
44729;DHT22;30457;53.590;9.922;2023-09-07T13:34:59;34.70;29.60
44729;DHT22;30457;53.590;9.922;2023-09-07T13:39:25;34.70;29.60
44729;DHT22;30457;53.590;9.922;2023-09-07T13:43:50;34.80;29.30
44729;DHT22;30457;53.590;9.922;2023-09-07T13:48:16;34.90;29.50
44729;DHT22;30457;53.590;9.922;2023-09-07T13:52:42;34.90;29.50
44729;DHT22;30457;53.590;9.922;2023-09-07T13:57:07;35.00;29.10
44729;DHT22;30457;53.590;9.922;2023-09-07T14:01:33;35.10;29.60
44729;DHT22;30457;53.590;9.922;2023-09-07T14:05:59;35.20;30.00
44729;DHT22;30457;53.590;9.922;2023-09-07T14:10:24;35.30;29.30
44729;DHT22;30457;53.590;9.922;2023-09-07T14:14:50;35.50;28.90
44729;DHT22;30457;53.590;9.922;2023-09-07T14:19:15;35.60;28.70
44729;DHT22;30457;53.590;9.922;2023-09-07T14:23:41;35.60;27.90
44729;DHT22;30457;53.590;9.922;2023-09-07T14:28:08;35.70;28.40
44729;DHT22;30457;53.590;9.922;2023-09-07T14:32:33;35.80;28.70
44729;DHT22;30457;53.590;9.922;2023-09-07T14:36:59;35.90;28.50
44729;DHT22;30457;53.590;9.922;2023-09-07T14:41:25;35.90;28.30
44729;DHT22;30457;53.590;9.922;2023-09-07T14:45:50;36.00;28.00
44729;DHT22;30457;53.590;9.922;2023-09-07T14:50:16;36.00;28.30
44729;DHT22;30457;53.590;9.922;2023-09-07T14:54:41;36.10;27.70
44729;DHT22;30457;53.590;9.922;2023-09-07T14:59:08;36.10;28.00
44729;DHT22;30457;53.590;9.922;2023-09-07T15:03:34;36.20;27.70
44729;DHT22;30457;53.590;9.922;2023-09-07T15:08:05;36.20;28.20
44729;DHT22;30457;53.590;9.922;2023-09-07T15:12:32;36.20;27.50
44729;DHT22;30457;53.590;9.922;2023-09-07T15:16:58;36.20;27.60
44729;DHT22;30457;53.590;9.922;2023-09-07T15:21:23;36.10;27.10
44729;DHT22;30457;53.590;9.922;2023-09-07T15:25:49;36.00;26.80
44729;DHT22;30457;53.590;9.922;2023-09-07T15:30:15;36.00;27.20
44729;DHT22;30457;53.590;9.922;2023-09-07T15:34:40;35.90;27.30
44729;DHT22;30457;53.590;9.922;2023-09-07T15:39:06;35.80;26.50
44729;DHT22;30457;53.590;9.922;2023-09-07T15:43:32;35.70;27.10
44729;DHT22;30457;53.590;9.922;2023-09-07T15:47:58;35.50;27.40
44729;DHT22;30457;53.590;9.922;2023-09-07T15:52:23;35.40;26.90
44729;DHT22;30457;53.590;9.922;2023-09-07T15:56:49;35.30;27.40
44729;DHT22;30457;53.590;9.922;2023-09-07T16:01:14;35.20;27.00
44729;DHT22;30457;53.590;9.922;2023-09-07T16:05:41;35.10;27.30
44729;DHT22;30457;53.590;9.922;2023-09-07T16:10:07;35.10;27.10
44729;DHT22;30457;53.590;9.922;2023-09-07T16:14:32;35.10;27.10
44729;DHT22;30457;53.590;9.922;2023-09-07T16:18:58;35.00;27.30
44729;DHT22;30457;53.590;9.922;2023-09-07T16:23:23;34.90;26.80
44729;DHT22;30457;53.590;9.922;2023-09-07T16:27:49;34.70;26.70
44729;DHT22;30457;53.590;9.922;2023-09-07T16:32:17;34.50;26.70
44729;DHT22;30457;53.590;9.922;2023-09-07T16:36:42;34.30;26.90
44729;DHT22;30457;53.590;9.922;2023-09-07T16:41:09;34.10;27.50
44729;DHT22;30457;53.590;9.922;2023-09-07T16:45:35;34.00;27.50
44729;DHT22;30457;53.590;9.922;2023-09-07T16:50:00;33.70;27.70
44729;DHT22;30457;53.590;9.922;2023-09-07T16:54:26;33.60;28.10
44729;DHT22;30457;53.590;9.922;2023-09-07T16:58:52;33.50;28.40
44729;DHT22;30457;53.590;9.922;2023-09-07T17:03:19;33.30;28.40
44729;DHT22;30457;53.590;9.922;2023-09-07T17:07:45;33.20;28.70
44729;DHT22;30457;53.590;9.922;2023-09-07T17:12:10;33.20;28.50
44729;DHT22;30457;53.590;9.922;2023-09-07T17:16:36;33.10;28.80
44729;DHT22;30457;53.590;9.922;2023-09-07T17:21:05;32.90;29.10
44729;DHT22;30457;53.590;9.922;2023-09-07T17:25:32;32.90;29.20
44729;DHT22;30457;53.590;9.922;2023-09-07T17:29:59;32.80;29.20
44729;DHT22;30457;53.590;9.922;2023-09-07T17:34:25;32.60;29.30
44729;DHT22;30457;53.590;9.922;2023-09-07T17:38:51;32.50;29.50
44729;DHT22;30457;53.590;9.922;2023-09-07T17:43:20;32.50;30.00
44729;DHT22;30457;53.590;9.922;2023-09-07T17:47:45;32.30;30.30
44729;DHT22;30457;53.590;9.922;2023-09-07T17:52:11;32.20;31.00
44729;DHT22;30457;53.590;9.922;2023-09-07T17:56:36;32.10;30.80
44729;DHT22;30457;53.590;9.922;2023-09-07T18:01:03;31.90;31.10
44729;DHT22;30457;53.590;9.922;2023-09-07T18:05:28;31.70;31.50
44729;DHT22;30457;53.590;9.922;2023-09-07T18:09:54;31.50;31.60
44729;DHT22;30457;53.590;9.922;2023-09-07T18:14:19;31.40;32.10
44729;DHT22;30457;53.590;9.922;2023-09-07T18:18:45;31.20;32.20
44729;DHT22;30457;53.590;9.922;2023-09-07T18:23:11;31.10;33.00
44729;DHT22;30457;53.590;9.922;2023-09-07T18:27:37;30.80;32.80
44729;DHT22;30457;53.590;9.922;2023-09-07T18:32:03;30.70;33.00
44729;DHT22;30457;53.590;9.922;2023-09-07T18:36:28;30.50;33.60
44729;DHT22;30457;53.590;9.922;2023-09-07T18:40:54;30.40;33.40
44729;DHT22;30457;53.590;9.922;2023-09-07T18:45:23;30.20;33.90
44729;DHT22;30457;53.590;9.922;2023-09-07T18:49:49;30.00;33.90
44729;DHT22;30457;53.590;9.922;2023-09-07T18:54:14;29.90;34.30
44729;DHT22;30457;53.590;9.922;2023-09-07T18:58:40;29.70;34.80
44729;DHT22;30457;53.590;9.922;2023-09-07T19:03:06;29.60;35.30
44729;DHT22;30457;53.590;9.922;2023-09-07T19:07:31;29.40;35.70
44729;DHT22;30457;53.590;9.922;2023-09-07T19:11:58;29.30;36.10
44729;DHT22;30457;53.590;9.922;2023-09-07T19:16:24;29.20;36.60
44729;DHT22;30457;53.590;9.922;2023-09-07T19:20:54;29.10;37.00
44729;DHT22;30457;53.590;9.922;2023-09-07T19:25:19;29.00;37.40
44729;DHT22;30457;53.590;9.922;2023-09-07T19:29:45;28.90;37.30
44729;DHT22;30457;53.590;9.922;2023-09-07T19:34:12;28.70;37.50
44729;DHT22;30457;53.590;9.922;2023-09-07T19:38:37;28.60;37.90
44729;DHT22;30457;53.590;9.922;2023-09-07T19:43:03;28.50;38.30
44729;DHT22;30457;53.590;9.922;2023-09-07T19:47:28;28.40;38.40
44729;DHT22;30457;53.590;9.922;2023-09-07T19:51:54;28.30;38.90
44729;DHT22;30457;53.590;9.922;2023-09-07T19:56:21;28.20;39.00
44729;DHT22;30457;53.590;9.922;2023-09-07T20:00:49;28.10;39.50
44729;DHT22;30457;53.590;9.922;2023-09-07T20:05:14;28.00;39.50
44729;DHT22;30457;53.590;9.922;2023-09-07T20:09:41;27.90;39.90
44729;DHT22;30457;53.590;9.922;2023-09-07T20:14:06;27.80;40.00
44729;DHT22;30457;53.590;9.922;2023-09-07T20:18:32;27.60;40.20
44729;DHT22;30457;53.590;9.922;2023-09-07T20:22:58;27.50;40.50
44729;DHT22;30457;53.590;9.922;2023-09-07T20:27:23;27.40;40.70
44729;DHT22;30457;53.590;9.922;2023-09-07T20:31:49;27.30;40.90
44729;DHT22;30457;53.590;9.922;2023-09-07T20:36:14;27.20;41.10
44729;DHT22;30457;53.590;9.922;2023-09-07T20:40:40;27.10;41.40
44729;DHT22;30457;53.590;9.922;2023-09-07T20:45:06;27.00;41.50
44729;DHT22;30457;53.590;9.922;2023-09-07T20:49:31;26.90;41.60
44729;DHT22;30457;53.590;9.922;2023-09-07T20:53:57;26.80;41.60
44729;DHT22;30457;53.590;9.922;2023-09-07T20:58:23;26.70;41.80
44729;DHT22;30457;53.590;9.922;2023-09-07T21:02:48;26.60;42.20
44729;DHT22;30457;53.590;9.922;2023-09-07T21:07:14;26.50;42.10
44729;DHT22;30457;53.590;9.922;2023-09-07T21:11:39;26.40;42.10
44729;DHT22;30457;53.590;9.922;2023-09-07T21:16:05;26.30;42.40
44729;DHT22;30457;53.590;9.922;2023-09-07T21:20:30;26.20;42.50
44729;DHT22;30457;53.590;9.922;2023-09-07T21:24:56;26.10;42.50
44729;DHT22;30457;53.590;9.922;2023-09-07T21:29:22;26.10;42.60
44729;DHT22;30457;53.590;9.922;2023-09-07T21:33:48;26.00;42.80
44729;DHT22;30457;53.590;9.922;2023-09-07T21:38:13;25.90;42.70
44729;DHT22;30457;53.590;9.922;2023-09-07T21:42:39;25.80;42.80
44729;DHT22;30457;53.590;9.922;2023-09-07T21:47:05;25.70;43.00
44729;DHT22;30457;53.590;9.922;2023-09-07T21:51:30;25.60;43.10
44729;DHT22;30457;53.590;9.922;2023-09-07T21:55:56;25.50;43.20
44729;DHT22;30457;53.590;9.922;2023-09-07T22:00:21;25.40;43.20
44729;DHT22;30457;53.590;9.922;2023-09-07T22:04:51;25.40;43.40
44729;DHT22;30457;53.590;9.922;2023-09-07T22:09:17;25.30;43.60
44729;DHT22;30457;53.590;9.922;2023-09-07T22:13:42;25.20;43.50
44729;DHT22;30457;53.590;9.922;2023-09-07T22:18:08;25.20;43.40
44729;DHT22;30457;53.590;9.922;2023-09-07T22:22:34;25.10;43.80
44729;DHT22;30457;53.590;9.922;2023-09-07T22:27:00;25.00;43.40
44729;DHT22;30457;53.590;9.922;2023-09-07T22:31:25;24.90;43.40
44729;DHT22;30457;53.590;9.922;2023-09-07T22:35:51;24.90;43.30
44729;DHT22;30457;53.590;9.922;2023-09-07T22:40:19;24.90;43.20
44729;DHT22;30457;53.590;9.922;2023-09-07T22:44:45;24.80;43.30
44729;DHT22;30457;53.590;9.922;2023-09-07T22:49:10;24.90;43.10
44729;DHT22;30457;53.590;9.922;2023-09-07T22:53:36;24.80;43.10
44729;DHT22;30457;53.590;9.922;2023-09-07T22:58:01;24.80;43.00
44729;DHT22;30457;53.590;9.922;2023-09-07T23:02:27;24.80;43.00
44729;DHT22;30457;53.590;9.922;2023-09-07T23:06:53;24.80;43.00
44729;DHT22;30457;53.590;9.922;2023-09-07T23:11:19;24.70;42.80
44729;DHT22;30457;53.590;9.922;2023-09-07T23:15:44;24.70;42.80
44729;DHT22;30457;53.590;9.922;2023-09-07T23:20:12;24.70;42.90
44729;DHT22;30457;53.590;9.922;2023-09-07T23:24:38;24.70;43.00
44729;DHT22;30457;53.590;9.922;2023-09-07T23:29:04;24.60;42.90
44729;DHT22;30457;53.590;9.922;2023-09-07T23:33:30;24.60;42.90
44729;DHT22;30457;53.590;9.922;2023-09-07T23:37:56;24.50;43.00
44729;DHT22;30457;53.590;9.922;2023-09-07T23:42:22;24.50;43.00
44729;DHT22;30457;53.590;9.922;2023-09-07T23:46:48;24.40;43.20
44729;DHT22;30457;53.590;9.922;2023-09-07T23:51:13;24.40;43.00
44729;DHT22;30457;53.590;9.922;2023-09-07T23:55:39;24.30;43.20
